Time;durP1;ratioP1;P1;durP2;ratioP2;P2;SDS_P1;SDS_P2;PMS_P1;PMS_P2;Temp;Humidity;BMP_temperature;BMP_pressure;BME280_temperature;BME280_humidity;BME280_pressure;Samples;Min_cycle;Max_cycle;Signal;HPM_P1;HPM_P2
2023/07/04 00:00:04;;;;;;;8.52;1.30;;;15.00;99.90;;;;;;4995399;28;20042;-81
2023/07/04 00:02:35;;;;;;;6.88;1.48;;;15.00;99.90;;;;;;4995815;28;20129;-80
2023/07/04 00:05:04;;;;;;;8.38;1.52;;;15.00;99.90;;;;;;4977744;28;20367;-79
2023/07/04 00:07:34;;;;;;;9.25;2.15;;;15.00;99.90;;;;;;4996006;28;20054;-81
2023/07/04 00:10:03;;;;;;;11.23;1.70;;;14.90;99.90;;;;;;4995014;28;20062;-81
2023/07/04 00:12:30;;;;;;;5.38;1.30;;;14.90;99.90;;;;;;4994580;28;20042;-80
2023/07/04 00:14:58;;;;;;;9.88;2.10;;;14.90;99.90;;;;;;4995278;28;20089;-81
2023/07/04 00:17:25;;;;;;;8.68;1.48;;;14.90;99.90;;;;;;4995317;28;20046;-81
2023/07/04 00:19:51;;;;;;;10.90;1.83;;;14.80;99.90;;;;;;4994322;28;20050;-80
2023/07/04 00:22:18;;;;;;;8.50;1.40;;;14.80;99.90;;;;;;4978029;28;20124;-80
2023/07/04 00:27:32;;;;;;;6.88;1.40;;;14.80;99.90;;;;;;4975933;28;20109;-80
2023/07/04 00:29:59;;;;;;;7.40;1.50;;;14.80;99.90;;;;;;4975669;28;20486;-79
2023/07/04 00:32:26;;;;;;;9.18;1.40;;;14.80;99.90;;;;;;4977799;28;20042;-80
2023/07/04 00:34:52;;;;;;;9.85;2.13;;;14.70;99.90;;;;;;4979991;28;20043;-81
2023/07/04 00:37:21;;;;;;;6.80;1.58;;;14.70;99.90;;;;;;4962515;28;20046;-79
2023/07/04 00:39:48;;;;;;;8.25;1.40;;;14.70;99.90;;;;;;4978813;28;20078;-79
2023/07/04 00:42:15;;;;;;;8.25;1.35;;;14.70;99.90;;;;;;4979984;28;20050;-81
2023/07/04 00:44:47;;;;;;;16.38;1.38;;;14.70;99.90;;;;;;4961874;28;20058;-80
2023/07/04 00:47:21;;;;;;;11.07;1.67;;;14.60;99.90;;;;;;4979281;28;20433;-79
2023/07/04 00:49:49;;;;;;;9.45;1.75;;;14.60;99.90;;;;;;4978206;28;20142;-80
2023/07/04 00:52:16;;;;;;;12.95;2.17;;;14.60;99.90;;;;;;4961558;28;20163;-80
2023/07/04 00:54:44;;;;;;;5.60;1.42;;;14.60;99.90;;;;;;4979778;28;20053;-78
2023/07/04 00:57:11;;;;;;;5.68;1.33;;;14.60;99.90;;;;;;4962237;28;20469;-80
2023/07/04 00:59:38;;;;;;;10.05;1.83;;;14.60;99.90;;;;;;4978145;28;20493;-80
2023/07/04 01:02:05;;;;;;;9.55;1.60;;;14.60;99.90;;;;;;4979386;28;20109;-81
2023/07/04 01:04:32;;;;;;;7.68;1.42;;;14.50;99.90;;;;;;4961244;28;20043;-80
2023/07/04 01:06:59;;;;;;;10.75;1.55;;;14.50;99.90;;;;;;4961989;28;20071;-78
2023/07/04 01:09:26;;;;;;;7.63;1.77;;;14.60;99.90;;;;;;4978763;28;20061;-78
2023/07/04 01:11:53;;;;;;;7.70;1.33;;;14.60;99.90;;;;;;4978272;28;20117;-78
2023/07/04 01:14:19;;;;;;;10.38;1.73;;;14.60;99.90;;;;;;4961714;28;20430;-79
2023/07/04 01:16:46;;;;;;;5.65;1.38;;;14.60;99.90;;;;;;4962473;28;20051;-78
2023/07/04 01:19:13;;;;;;;7.97;1.55;;;14.60;99.90;;;;;;4977930;28;20050;-78
2023/07/04 01:21:40;;;;;;;9.15;1.55;;;14.50;99.90;;;;;;4977170;28;20585;-78
2023/07/04 01:24:07;;;;;;;6.88;1.48;;;14.50;99.90;;;;;;4998536;28;20054;-79
2023/07/04 01:26:36;;;;;;;5.85;1.27;;;14.50;99.90;;;;;;4980136;28;20432;-80
2023/07/04 01:29:03;;;;;;;9.75;1.67;;;14.60;99.90;;;;;;4981333;28;20145;-79
2023/07/04 01:31:30;;;;;;;7.55;1.48;;;14.50;99.90;;;;;;4980144;28;20042;-78
2023/07/04 01:33:57;;;;;;;6.43;1.30;;;14.50;99.90;;;;;;4964925;28;20145;-77
2023/07/04 01:36:24;;;;;;;9.10;1.52;;;14.50;99.90;;;;;;4981007;28;20454;-80
2023/07/04 01:38:51;;;;;;;9.32;1.50;;;14.50;99.90;;;;;;4996903;28;20109;-79
2023/07/04 01:41:18;;;;;;;7.65;1.33;;;14.50;99.90;;;;;;4981135;28;20070;-79
2023/07/04 01:43:44;;;;;;;7.30;1.48;;;14.50;99.90;;;;;;4981169;28;20057;-79
2023/07/04 01:46:13;;;;;;;12.23;1.63;;;14.50;99.90;;;;;;4997198;28;20046;-80
2023/07/04 01:48:41;;;;;;;6.63;1.30;;;14.50;99.90;;;;;;4997566;28;20381;-80
2023/07/04 01:51:07;;;;;;;7.18;1.40;;;14.50;99.90;;;;;;4997150;28;20092;-79
2023/07/04 01:53:34;;;;;;;6.00;1.40;;;14.50;99.90;;;;;;4997715;28;20062;-78
2023/07/04 01:56:01;;;;;;;4.82;1.48;;;14.50;99.90;;;;;;4980556;28;20047;-80
2023/07/04 01:58:28;;;;;;;8.95;1.63;;;14.50;99.90;;;;;;4995858;28;20039;-79
2023/07/04 02:00:56;;;;;;;10.02;1.75;;;14.50;99.90;;;;;;4980186;28;20437;-78
2023/07/04 02:03:22;;;;;;;7.10;1.73;;;14.50;99.90;;;;;;4980205;28;20054;-81
2023/07/04 02:05:52;;;;;;;6.97;1.65;;;14.50;99.90;;;;;;4996464;28;20039;-79
2023/07/04 02:08:18;;;;;;;5.60;1.52;;;14.60;99.90;;;;;;4997353;28;20057;-77
2023/07/04 02:10:45;;;;;;;11.65;1.73;;;14.60;99.90;;;;;;4994351;28;20050;-77
2023/07/04 02:13:13;;;;;;;12.60;1.90;;;14.50;99.90;;;;;;5012036;28;20046;-78
2023/07/04 02:15:40;;;;;;;8.65;1.55;;;14.50;99.90;;;;;;4997460;28;20354;-79
2023/07/04 02:18:07;;;;;;;11.57;2.03;;;14.40;99.90;;;;;;5011878;28;20149;-79
2023/07/04 02:20:35;;;;;;;10.27;1.95;;;14.40;99.90;;;;;;5003863;28;20128;-79
2023/07/04 02:23:02;;;;;;;8.82;1.75;;;14.40;99.90;;;;;;5016447;28;20046;-77
2023/07/04 02:25:30;;;;;;;5.18;1.20;;;14.40;99.90;;;;;;5015842;28;20120;-78
2023/07/04 02:27:57;;;;;;;8.35;1.30;;;14.40;99.90;;;;;;5016911;28;20103;-78
2023/07/04 02:30:24;;;;;;;7.13;1.80;;;14.40;99.90;;;;;;5016336;28;20034;-79
2023/07/04 02:32:51;;;;;;;9.20;1.70;;;14.30;99.90;;;;;;5015197;28;20045;-78
2023/07/04 02:35:21;;;;;;;6.43;1.40;;;14.40;99.90;;;;;;5016255;28;20049;-78
2023/07/04 02:37:49;;;;;;;7.43;1.48;;;14.30;99.90;;;;;;5014697;28;20050;-79
2023/07/04 02:40:15;;;;;;;9.63;1.90;;;14.30;99.90;;;;;;5016328;28;20057;-79
2023/07/04 02:42:42;;;;;;;7.45;1.77;;;14.30;99.90;;;;;;5015615;28;20353;-79
2023/07/04 02:45:11;;;;;;;8.20;1.58;;;14.30;99.90;;;;;;5014392;28;20100;-79
2023/07/04 02:47:39;;;;;;;10.68;2.08;;;14.30;99.90;;;;;;5015361;28;20120;-80
2023/07/04 02:50:11;;;;;;;12.35;1.60;;;14.30;99.90;;;;;;5015145;28;20048;-80
2023/07/04 02:52:40;;;;;;;4.28;1.30;;;14.30;99.90;;;;;;5014409;28;20042;-80
2023/07/04 02:55:07;;;;;;;6.85;1.58;;;14.30;99.90;;;;;;5014574;28;20045;-79
2023/07/04 02:57:35;;;;;;;7.90;1.50;;;14.30;99.90;;;;;;5014615;28;20381;-78
2023/07/04 03:00:02;;;;;;;7.25;1.63;;;14.30;99.90;;;;;;5014724;28;20045;-78
2023/07/04 03:02:32;;;;;;;11.32;2.22;;;14.30;99.90;;;;;;5015035;28;20050;-77
2023/07/04 03:05:01;;;;;;;9.38;1.77;;;14.30;99.90;;;;;;5014212;28;20396;-80
2023/07/04 03:07:29;;;;;;;8.43;1.67;;;14.30;99.90;;;;;;5015581;28;20038;-78
2023/07/04 03:09:57;;;;;;;10.77;1.63;;;14.30;99.90;;;;;;5014704;28;20062;-79
2023/07/04 03:12:26;;;;;;;9.00;1.40;;;14.30;99.90;;;;;;5014423;28;20042;-79
2023/07/04 03:14:54;;;;;;;8.43;1.95;;;14.30;99.90;;;;;;5014948;28;20137;-77
2023/07/04 03:17:21;;;;;;;8.70;1.33;;;14.30;99.90;;;;;;5015378;28;20495;-79
2023/07/04 03:19:48;;;;;;;9.80;1.75;;;14.30;99.90;;;;;;5014189;28;20042;-78
2023/07/04 03:22:16;;;;;;;8.82;2.17;;;14.30;99.90;;;;;;4995322;28;20062;-79
2023/07/04 03:24:44;;;;;;;11.10;1.65;;;14.30;99.90;;;;;;4994351;28;20118;-79
2023/07/04 03:27:11;;;;;;;9.38;1.58;;;14.40;99.90;;;;;;4995327;28;20050;-79
2023/07/04 03:29:38;;;;;;;10.52;2.20;;;14.40;99.90;;;;;;4994930;28;20038;-80
2023/07/04 03:32:05;;;;;;;5.45;1.35;;;14.40;99.90;;;;;;4994136;28;20050;-77
2023/07/04 03:34:32;;;;;;;6.55;1.50;;;14.40;99.90;;;;;;4996381;28;20046;-79
2023/07/04 03:36:59;;;;;;;13.73;2.00;;;14.30;99.90;;;;;;4995183;28;20057;-79
2023/07/04 03:39:26;;;;;;;7.40;1.83;;;14.30;99.90;;;;;;4993989;28;20046;-80
2023/07/04 03:41:54;;;;;;;7.82;1.83;;;14.30;99.90;;;;;;4994925;28;20138;-78
2023/07/04 03:44:21;;;;;;;9.60;2.05;;;14.40;99.90;;;;;;4994690;28;20074;-78
2023/07/04 03:46:50;;;;;;;7.20;1.83;;;14.30;99.90;;;;;;4994598;28;20084;-79
2023/07/04 03:49:16;;;;;;;8.48;1.70;;;14.30;99.90;;;;;;4994444;28;20034;-79
2023/07/04 03:51:43;;;;;;;9.35;1.95;;;14.30;99.90;;;;;;4994774;28;20469;-78
2023/07/04 03:54:13;;;;;;;6.93;1.90;;;14.30;99.90;;;;;;4994608;28;20465;-79
2023/07/04 03:59:25;;;;;;;7.25;1.58;;;14.30;99.90;;;;;;4993560;28;20065;-78
2023/07/04 04:01:52;;;;;;;12.40;1.77;;;14.30;99.90;;;;;;4994926;28;20046;-79
2023/07/04 04:04:20;;;;;;;9.40;1.85;;;14.30;99.90;;;;;;4994817;28;20034;-79
2023/07/04 04:06:54;;;;;;;8.32;1.80;;;14.30;99.90;;;;;;4994875;28;20038;-77
2023/07/04 04:09:21;;;;;;;10.70;1.77;;;14.30;99.90;;;;;;4995257;28;20120;-77
2023/07/04 04:11:48;;;;;;;10.38;2.03;;;14.30;99.90;;;;;;4994923;28;20148;-81
2023/07/04 04:14:15;;;;;;;8.95;1.98;;;14.30;99.90;;;;;;4995584;28;20042;-78
2023/07/04 04:16:41;;;;;;;7.55;2.25;;;14.30;99.90;;;;;;4995240;28;20129;-77
2023/07/04 04:19:08;;;;;;;8.68;1.73;;;14.30;99.90;;;;;;4994438;28;20046;-79
2023/07/04 04:21:35;;;;;;;13.00;1.92;;;14.30;99.90;;;;;;4978369;28;20433;-81
2023/07/04 04:24:01;;;;;;;7.72;1.52;;;14.20;99.90;;;;;;4995175;28;20058;-79
2023/07/04 04:26:37;;;;;;;10.90;1.80;;;14.20;99.90;;;;;;4994114;28;20170;-79
2023/07/04 04:29:05;;;;;;;7.70;1.98;;;14.20;99.90;;;;;;4994993;28;20042;-79
2023/07/04 04:31:33;;;;;;;10.38;1.88;;;14.30;99.90;;;;;;4994456;28;20126;-78
2023/07/04 04:34:00;;;;;;;8.80;2.08;;;14.20;99.90;;;;;;4995063;28;20050;-80
2023/07/04 04:36:30;;;;;;;6.80;2.00;;;14.10;99.90;;;;;;4995203;28;20070;-79
2023/07/04 04:38:59;;;;;;;9.20;1.67;;;14.00;99.90;;;;;;4977447;28;20393;-78
2023/07/04 04:41:25;;;;;;;5.13;1.48;;;14.00;99.90;;;;;;4994970;28;20054;-79
2023/07/04 04:43:53;;;;;;;10.88;1.67;;;14.00;99.90;;;;;;4995000;28;20444;-78
2023/07/04 04:46:21;;;;;;;12.48;1.60;;;14.00;99.90;;;;;;4993942;28;20350;-80
2023/07/04 04:48:51;;;;;;;6.30;1.60;;;14.10;99.90;;;;;;4994804;28;20122;-80
2023/07/04 04:51:18;;;;;;;12.32;2.10;;;14.10;99.90;;;;;;4994042;28;20042;-78
2023/07/04 04:53:47;;;;;;;11.55;1.75;;;14.10;99.90;;;;;;4995088;28;20108;-79
2023/07/04 04:56:14;;;;;;;12.10;2.10;;;14.10;99.90;;;;;;4994473;28;20039;-77
2023/07/04 04:58:43;;;;;;;8.70;1.70;;;14.10;99.90;;;;;;4993857;28;20370;-80
2023/07/04 05:01:10;;;;;;;14.35;1.90;;;14.20;99.90;;;;;;4995027;28;20100;-80
2023/07/04 05:03:36;;;;;;;8.60;1.90;;;14.20;99.90;;;;;;4995231;28;20424;-81
2023/07/04 05:06:05;;;;;;;13.90;1.90;;;14.20;99.90;;;;;;4994055;28;20042;-81
2023/07/04 05:08:31;;;;;;;6.07;1.50;;;14.20;99.90;;;;;;4994991;28;20074;-80
2023/07/04 05:10:58;;;;;;;10.52;1.67;;;14.30;99.90;;;;;;4994449;28;20042;-80
2023/07/04 05:13:25;;;;;;;7.97;1.88;;;14.30;99.90;;;;;;4977719;28;20066;-77
2023/07/04 05:15:53;;;;;;;12.45;2.10;;;14.30;99.90;;;;;;4994617;28;20121;-81
2023/07/04 05:18:19;;;;;;;8.75;1.92;;;14.30;99.90;;;;;;4995994;28;20054;-78
2023/07/04 05:20:46;;;;;;;5.82;1.75;;;14.30;99.90;;;;;;5005639;28;20128;-80
2023/07/04 05:23:13;;;;;;;9.15;1.65;;;14.40;99.90;;;;;;5018026;28;20073;-79
2023/07/04 05:28:10;;;;;;;10.98;2.05;;;14.50;99.90;;;;;;5017666;28;20030;-78
2023/07/04 05:30:36;;;;;;;9.52;2.08;;;14.60;99.90;;;;;;5018189;28;20435;-81
2023/07/04 05:33:03;;;;;;;5.60;1.48;;;14.60;99.90;;;;;;5016900;28;20088;-79
2023/07/04 05:35:31;;;;;;;11.73;1.85;;;14.50;99.90;;;;;;5000838;28;20049;-81
2023/07/04 05:37:58;;;;;;;7.20;1.52;;;14.60;99.90;;;;;;5017124;28;20057;-80
2023/07/04 05:40:24;;;;;;;11.85;1.67;;;14.60;99.90;;;;;;5000332;28;20439;-79
2023/07/04 05:42:51;;;;;;;6.93;1.90;;;14.60;99.90;;;;;;5017903;28;20038;-78
2023/07/04 05:45:19;;;;;;;13.95;1.77;;;14.60;99.90;;;;;;5006112;28;20412;-80
2023/07/04 05:47:45;;;;;;;15.48;2.83;;;14.70;99.90;;;;;;4998128;28;20417;-80
2023/07/04 05:50:12;;;;;;;7.88;1.92;;;14.70;99.90;;;;;;4997695;28;20108;-78
2023/07/04 05:52:39;;;;;;;9.35;2.28;;;14.70;99.90;;;;;;4997113;28;20042;-78
2023/07/04 05:55:07;;;;;;;9.70;2.15;;;14.70;99.90;;;;;;4997798;28;20050;-79
2023/07/04 05:57:33;;;;;;;9.18;1.92;;;14.80;99.90;;;;;;4997595;28;20057;-80
2023/07/04 06:00:00;;;;;;;12.02;2.17;;;14.80;99.90;;;;;;4997166;28;20050;-81
2023/07/04 06:02:39;;;;;;;9.10;2.47;;;14.80;99.90;;;;;;4997449;28;20050;-79
2023/07/04 06:05:06;;;;;;;9.02;2.10;;;14.90;99.90;;;;;;4996221;28;20046;-79
2023/07/04 06:07:33;;;;;;;11.18;1.80;;;14.90;99.90;;;;;;4997529;28;20058;-78
2023/07/04 06:10:00;;;;;;;11.30;1.90;;;14.90;99.90;;;;;;4996197;28;20062;-78
2023/07/04 06:12:29;;;;;;;14.15;1.95;;;14.90;99.90;;;;;;4996713;28;20125;-79
2023/07/04 06:14:56;;;;;;;13.20;2.10;;;15.00;99.90;;;;;;4997582;28;20138;-78
2023/07/04 06:17:22;;;;;;;10.77;2.00;;;15.10;99.90;;;;;;4997546;28;20069;-79
2023/07/04 06:19:49;;;;;;;10.70;1.75;;;15.20;99.90;;;;;;4996037;28;20369;-79
2023/07/04 06:22:16;;;;;;;10.63;1.77;;;15.30;99.90;;;;;;4997756;28;20054;-79
2023/07/04 06:24:46;;;;;;;10.40;2.05;;;15.40;99.90;;;;;;4996631;28;20088;-77
2023/07/04 06:27:13;;;;;;;8.32;1.98;;;15.60;99.90;;;;;;4979899;28;20071;-80
2023/07/04 06:29:40;;;;;;;10.50;1.80;;;15.60;99.90;;;;;;4996172;28;20109;-79
2023/07/04 06:32:06;;;;;;;6.45;1.83;;;15.70;99.90;;;;;;4996698;28;20042;-79
2023/07/04 06:34:33;;;;;;;8.02;1.75;;;15.80;99.90;;;;;;4997316;28;20125;-80
2023/07/04 06:37:00;;;;;;;10.70;2.25;;;15.90;99.90;;;;;;4996833;28;20477;-80
2023/07/04 06:39:26;;;;;;;10.68;1.80;;;16.00;99.90;;;;;;4995770;28;20485;-80
2023/07/04 06:41:53;;;;;;;8.30;1.83;;;16.10;99.90;;;;;;4996802;28;20054;-81
2023/07/04 06:44:30;;;;;;;7.50;1.60;;;16.10;99.90;;;;;;4976261;28;20128;-80
2023/07/04 06:46:57;;;;;;;7.90;1.83;;;16.10;99.90;;;;;;4960541;28;20470;-78
2023/07/04 06:49:24;;;;;;;9.20;1.95;;;16.10;99.90;;;;;;4983878;28;20049;-78
2023/07/04 06:51:51;;;;;;;7.00;1.55;;;16.10;99.90;;;;;;4991910;28;20108;-81
2023/07/04 06:54:18;;;;;;;13.13;2.00;;;16.20;99.90;;;;;;4996575;28;20049;-78
2023/07/04 06:56:44;;;;;;;9.65;2.05;;;16.20;99.90;;;;;;4996502;28;20058;-79
2023/07/04 06:59:11;;;;;;;9.40;1.58;;;16.30;99.90;;;;;;4995469;28;20073;-79
2023/07/04 07:01:39;;;;;;;5.57;1.75;;;16.40;99.90;;;;;;4996308;28;20050;-78
2023/07/04 07:04:06;;;;;;;9.07;1.52;;;16.40;99.90;;;;;;4995976;28;20042;-79
2023/07/04 07:06:35;;;;;;;9.07;2.00;;;16.40;99.90;;;;;;4995827;28;20511;-80
2023/07/04 07:09:05;;;;;;;9.27;1.92;;;16.50;99.90;;;;;;4995819;28;20121;-77
2023/07/04 07:11:32;;;;;;;9.50;1.73;;;16.70;99.90;;;;;;4995449;28;20476;-79
2023/07/04 07:13:59;;;;;;;6.35;1.60;;;16.80;99.90;;;;;;4996370;28;20066;-79
2023/07/04 07:16:26;;;;;;;7.90;2.10;;;16.80;99.90;;;;;;4995996;28;20074;-78
2023/07/04 07:18:52;;;;;;;6.28;1.42;;;16.70;99.90;;;;;;4995222;28;20104;-80
2023/07/04 07:21:20;;;;;;;6.57;1.40;;;16.80;99.90;;;;;;4982452;28;20046;-79
2023/07/04 07:23:46;;;;;;;9.90;1.80;;;16.70;99.90;;;;;;4976679;28;20051;-79
2023/07/04 07:26:15;;;;;;;6.93;1.60;;;16.80;99.90;;;;;;4976081;28;20042;-80
2023/07/04 07:28:45;;;;;;;7.63;1.60;;;16.80;99.90;;;;;;4960145;28;20075;-78
2023/07/04 07:31:11;;;;;;;6.60;1.50;;;16.70;99.90;;;;;;4975498;28;20038;-77
2023/07/04 07:33:39;;;;;;;5.72;1.42;;;16.80;99.90;;;;;;4976296;28;20046;-78
2023/07/04 07:38:36;;;;;;;7.55;2.08;;;17.10;99.90;;;;;;4975827;28;20422;-79
2023/07/04 07:41:04;;;;;;;8.80;1.75;;;17.30;99.90;;;;;;4976590;28;20078;-78
2023/07/04 07:43:31;;;;;;;5.80;1.50;;;17.40;99.90;;;;;;4979441;28;20125;-79
2023/07/04 07:45:59;;;;;;;6.65;1.85;;;17.40;99.90;;;;;;4986329;28;20121;-79
2023/07/04 07:48:26;;;;;;;4.80;1.40;;;17.60;99.90;;;;;;4988284;28;20105;-80
2023/07/04 07:50:53;;;;;;;7.95;2.40;;;17.90;99.90;;;;;;4991558;28;20488;-79
2023/07/04 07:53:20;;;;;;;6.20;1.92;;;18.20;99.90;;;;;;4995882;28;20048;-80
2023/07/04 07:55:48;;;;;;;6.47;1.55;;;18.40;99.90;;;;;;4996040;28;20125;-80
2023/07/04 07:58:14;;;;;;;6.05;1.63;;;18.60;99.90;;;;;;4994462;28;20050;-81
2023/07/04 08:00:41;;;;;;;6.05;1.60;;;18.60;99.90;;;;;;4995203;28;20117;-79
2023/07/04 08:03:08;;;;;;;9.75;1.85;;;18.60;99.90;;;;;;4995388;28;20349;-78
2023/07/04 08:05:35;;;;;;;7.45;1.80;;;18.40;99.90;;;;;;4989254;28;20089;-82
2023/07/04 08:08:02;;;;;;;8.05;1.55;;;18.40;99.90;;;;;;4959818;28;20117;-83
2023/07/04 08:10:29;;;;;;;9.98;1.67;;;18.40;99.90;;;;;;4977634;28;20063;-83
2023/07/04 08:12:56;;;;;;;14.07;2.28;;;18.50;99.90;;;;;;4993950;28;20169;-82
2023/07/04 08:15:22;;;;;;;5.53;1.50;;;18.40;99.90;;;;;;4995557;28;20100;-81
2023/07/04 08:17:49;;;;;;;8.35;1.65;;;18.40;99.90;;;;;;4994447;28;20034;-79
2023/07/04 08:20:17;;;;;;;5.05;1.55;;;18.60;99.90;;;;;;4995616;28;20425;-81
2023/07/04 08:22:44;;;;;;;6.45;2.10;;;19.00;99.90;;;;;;4995352;28;20073;-81
2023/07/04 08:25:11;;;;;;;8.07;1.90;;;19.00;99.90;;;;;;4977845;28;20080;-80
2023/07/04 08:27:38;;;;;;;8.43;1.95;;;19.30;99.90;;;;;;4995073;28;20038;-85
2023/07/04 08:30:05;;;;;;;5.03;1.65;;;19.30;99.90;;;;;;4991434;28;20052;-84
2023/07/04 08:32:33;;;;;;;8.32;1.80;;;19.40;99.90;;;;;;4985225;28;20042;-82
2023/07/04 08:35:03;;;;;;;7.40;1.65;;;19.50;99.90;;;;;;4987007;28;20038;-81
2023/07/04 08:37:30;;;;;;;9.73;1.98;;;19.40;99.90;;;;;;4987956;28;20042;-82
2023/07/04 08:39:57;;;;;;;8.30;1.80;;;19.60;99.90;;;;;;4986561;28;20369;-84
2023/07/04 08:42:23;;;;;;;7.35;1.73;;;19.80;99.90;;;;;;4988902;28;20043;-82
2023/07/04 08:44:52;;;;;;;8.65;1.92;;;19.80;99.90;;;;;;4993140;28;20092;-83
2023/07/04 08:47:25;;;;;;;4.20;1.40;;;19.80;99.90;;;;;;4994584;28;20042;-82
2023/07/04 08:49:52;;;;;;;6.70;1.73;;;19.70;99.90;;;;;;4994566;28;20044;-83
2023/07/04 08:52:21;;;;;;;6.57;1.60;;;19.80;99.90;;;;;;4988389;28;20077;-81
2023/07/04 08:54:50;;;;;;;8.80;1.67;;;19.70;99.90;;;;;;4998434;28;20413;-82
2023/07/04 08:57:17;;;;;;;6.72;1.70;;;19.50;99.90;;;;;;4998902;28;20431;-81
2023/07/04 08:59:44;;;;;;;5.53;1.52;;;19.50;99.90;;;;;;4997654;28;20050;-80
2023/07/04 09:02:11;;;;;;;10.85;1.70;;;19.30;99.90;;;;;;4998920;28;20046;-85
2023/07/04 09:04:39;;;;;;;8.05;1.55;;;19.30;99.90;;;;;;4997511;28;20134;-82
2023/07/04 09:07:05;;;;;;;5.82;1.58;;;19.30;99.90;;;;;;5014774;28;20073;-81
2023/07/04 09:09:32;;;;;;;7.22;1.60;;;19.40;99.90;;;;;;5004121;28;20424;-82
2023/07/04 09:11:59;;;;;;;8.10;1.75;;;19.40;99.90;;;;;;5017264;28;20042;-81
2023/07/04 09:14:25;;;;;;;4.85;1.50;;;19.50;99.90;;;;;;5017821;28;20046;-78
2023/07/04 09:16:53;;;;;;;5.75;1.50;;;19.40;99.90;;;;;;5017986;28;20041;-84
2023/07/04 09:19:20;;;;;;;7.85;1.58;;;19.40;99.90;;;;;;4988285;28;20050;-83
2023/07/04 09:21:47;;;;;;;9.07;1.85;;;19.40;99.90;;;;;;4978002;28;20058;-85
2023/07/04 09:24:14;;;;;;;5.15;1.90;;;19.60;99.90;;;;;;4997224;28;20050;-80
2023/07/04 09:26:41;;;;;;;7.45;1.80;;;19.90;99.90;;;;;;4981192;28;20042;-83
2023/07/04 09:29:08;;;;;;;8.27;2.03;;;20.20;99.90;;;;;;4980850;28;20162;-84
2023/07/04 09:31:36;;;;;;;5.47;1.80;;;20.50;99.90;;;;;;4997486;28;20038;-83
2023/07/04 09:34:03;;;;;;;6.85;2.17;;;20.50;99.90;;;;;;4975386;28;20068;-81
2023/07/04 09:36:31;;;;;;;12.02;1.95;;;20.50;99.90;;;;;;4982163;28;20089;-81
2023/07/04 09:38:58;;;;;;;4.85;1.70;;;20.30;99.90;;;;;;4980245;28;20113;-82
2023/07/04 09:41:25;;;;;;;5.05;1.90;;;20.40;99.90;;;;;;4969153;28;20042;-81
2023/07/04 09:43:53;;;;;;;7.22;1.92;;;20.40;99.90;;;;;;4978044;28;20130;-80
2023/07/04 09:46:19;;;;;;;8.02;2.25;;;20.50;99.90;;;;;;4967143;28;20058;-81
2023/07/04 09:48:46;;;;;;;7.22;1.95;;;20.50;99.90;;;;;;4997624;28;20066;-83
2023/07/04 09:51:16;;;;;;;10.18;2.10;;;20.70;99.90;;;;;;4980270;28;20073;-83
2023/07/04 09:53:43;;;;;;;7.50;2.00;;;20.80;99.90;;;;;;4962254;28;20149;-85
2023/07/04 09:56:10;;;;;;;7.82;2.22;;;20.60;99.90;;;;;;4978098;28;20128;-82
2023/07/04 09:58:36;;;;;;;7.63;2.33;;;20.30;99.90;;;;;;4979938;28;20433;-80
2023/07/04 10:01:08;;;;;;;8.57;2.00;;;20.10;99.90;;;;;;4978479;28;20042;-83
2023/07/04 10:03:35;;;;;;;6.68;2.00;;;20.10;99.90;;;;;;4994610;28;20046;-83
2023/07/04 10:06:02;;;;;;;8.65;2.00;;;20.20;99.90;;;;;;4995564;28;20042;-84
2023/07/04 10:08:28;;;;;;;7.55;2.35;;;20.10;99.90;;;;;;4997744;28;20038;-82
2023/07/04 10:10:55;;;;;;;10.50;2.25;;;20.00;99.90;;;;;;5009487;28;20050;-80
2023/07/04 10:13:22;;;;;;;7.65;2.08;;;19.90;99.90;;;;;;4997361;28;20126;-79
2023/07/04 10:15:50;;;;;;;9.27;2.13;;;20.10;99.90;;;;;;4997141;28;20048;-80
2023/07/04 10:18:17;;;;;;;5.43;1.70;;;20.20;99.90;;;;;;4996625;28;20346;-80
2023/07/04 10:20:43;;;;;;;10.27;2.10;;;20.50;99.90;;;;;;5005645;28;20038;-83
2023/07/04 10:23:10;;;;;;;8.13;2.17;;;20.70;99.90;;;;;;5015541;28;20058;-81
2023/07/04 10:25:37;;;;;;;6.38;2.13;;;20.90;99.90;;;;;;5015848;28;20048;-80
2023/07/04 10:28:04;;;;;;;9.10;2.30;;;21.00;99.90;;;;;;5015457;28;20084;-80
2023/07/04 10:30:30;;;;;;;7.68;2.35;;;21.00;99.90;;;;;;5016463;28;20532;-83
2023/07/04 10:32:57;;;;;;;8.45;2.53;;;20.90;99.90;;;;;;5014863;28;20745;-81
2023/07/04 10:35:26;;;;;;;9.18;2.58;;;20.80;99.90;;;;;;5016050;28;20053;-84
2023/07/04 10:37:53;;;;;;;9.93;2.70;;;20.70;99.90;;;;;;5015097;28;20444;-83
2023/07/04 10:40:19;;;;;;;6.95;2.63;;;20.60;99.90;;;;;;5016424;28;20137;-83
2023/07/04 10:42:46;;;;;;;8.10;2.70;;;20.60;99.90;;;;;;5016151;28;20437;-81
2023/07/04 10:45:13;;;;;;;8.45;3.03;;;20.80;99.90;;;;;;5009865;28;20437;-82
2023/07/04 10:47:40;;;;;;;8.95;2.60;;;21.10;99.90;;;;;;5011709;28;20366;-81
2023/07/04 10:50:07;;;;;;;9.38;3.10;;;21.30;99.90;;;;;;4993975;28;20045;-83
2023/07/04 10:52:34;;;;;;;7.57;2.67;;;21.40;99.90;;;;;;5009959;28;20043;-85
2023/07/04 10:55:03;;;;;;;8.32;2.20;;;21.20;99.90;;;;;;4995760;28;20137;-83
2023/07/04 10:57:30;;;;;;;7.95;2.45;;;21.20;99.90;;;;;;4994467;28;20046;-83
2023/07/04 10:59:57;;;;;;;9.25;2.60;;;21.10;99.90;;;;;;4992170;28;20509;-79
2023/07/04 11:02:24;;;;;;;11.48;2.58;;;20.90;99.90;;;;;;4977267;28;20093;-87
2023/07/04 11:07:22;;;;;;;10.57;2.50;;;20.60;99.90;;;;;;4995480;28;20105;-84
2023/07/04 11:09:48;;;;;;;11.43;3.10;;;20.50;99.90;;;;;;4995380;28;20377;-82
2023/07/04 11:12:15;;;;;;;11.95;3.28;;;20.40;99.90;;;;;;4995278;28;20113;-86
2023/07/04 11:17:30;;;;;;;10.82;3.13;;;20.10;99.90;;;;;;4996617;28;20038;-86
2023/07/04 11:19:56;;;;;;;8.30;2.63;;;20.20;99.90;;;;;;5011570;28;20097;-85
2023/07/04 11:22:23;;;;;;;9.07;2.88;;;20.30;99.90;;;;;;4996244;28;20042;-89
2023/07/04 11:27:38;;;;;;;9.50;3.03;;;19.40;99.90;;;;;;4995217;28;20050;-87
2023/07/04 11:30:07;;;;;;;11.80;3.17;;;19.40;99.90;;;;;;4996079;28;20061;-87
2023/07/04 11:32:34;;;;;;;12.85;3.45;;;19.50;99.90;;;;;;5010966;28;20053;-83
2023/07/04 11:37:51;;;;;;;9.07;2.83;;;19.30;99.90;;;;;;5007782;28;20140;-84
2023/07/04 11:40:18;;;;;;;9.52;2.95;;;19.20;99.90;;;;;;4993495;28;20437;-88
2023/07/04 11:42:45;;;;;;;12.77;3.05;;;19.10;99.90;;;;;;4994992;28;20038;-86
2023/07/04 11:47:57;;;;;;;7.30;3.00;;;19.30;99.90;;;;;;4995671;28;20092;-83
2023/07/04 11:50:24;;;;;;;8.23;2.88;;;19.20;99.90;;;;;;5011102;28;20038;-85
2023/07/04 11:52:51;;;;;;;11.40;3.20;;;19.10;99.90;;;;;;4993559;28;20477;-86
2023/07/04 11:58:03;;;;;;;12.30;3.88;;;19.20;99.90;;;;;;4993107;28;20104;-81
2023/07/04 12:00:30;;;;;;;14.63;3.60;;;19.10;99.90;;;;;;4994923;28;20034;-85
2023/07/04 12:02:57;;;;;;;15.25;3.50;;;19.00;99.90;;;;;;4993529;28;20549;-81
2023/07/04 12:05:24;;;;;;;13.88;3.55;;;19.00;99.90;;;;;;4993492;28;20053;-82
2023/07/04 12:07:51;;;;;;;13.82;3.75;;;18.70;99.90;;;;;;4993431;28;20112;-80
2023/07/04 12:10:18;;;;;;;11.80;3.75;;;18.10;99.90;;;;;;5009648;28;20086;-85
2023/07/04 12:12:45;;;;;;;10.95;3.60;;;17.90;99.90;;;;;;4992199;28;20046;-84
2023/07/04 12:15:12;;;;;;;11.23;3.80;;;17.50;99.90;;;;;;5009645;28;20462;-82
2023/07/04 12:17:39;;;;;;;9.48;3.13;;;17.20;99.90;;;;;;5008751;28;20149;-84
2023/07/04 12:20:09;;;;;;;11.13;3.03;;;17.10;99.90;;;;;;5009685;28;20354;-82
2023/07/04 12:22:36;;;;;;;9.60;3.38;;;17.00;99.90;;;;;;5009798;28;20050;-83
2023/07/04 12:27:49;;;;;;;10.38;3.10;;;17.30;99.90;;;;;;5011884;28;20388;-80
2023/07/04 12:30:16;;;;;;;13.85;4.10;;;17.70;99.90;;;;;;4997265;28;20046;-81
2023/07/04 12:32:42;;;;;;;13.05;3.42;;;18.20;99.90;;;;;;5013345;28;20100;-82
2023/07/04 12:35:10;;;;;;;11.07;3.15;;;18.70;99.90;;;;;;4998799;28;20049;-82
2023/07/04 12:37:39;;;;;;;13.13;3.13;;;19.00;99.90;;;;;;4988204;28;20055;-83
2023/07/04 12:40:06;;;;;;;9.82;3.20;;;19.40;99.90;;;;;;4994362;28;20066;-82
2023/07/04 12:42:33;;;;;;;11.70;3.05;;;19.80;99.90;;;;;;4979351;28;20474;-80
2023/07/04 12:45:00;;;;;;;9.80;3.30;;;19.80;99.90;;;;;;4987028;28;20436;-84
2023/07/04 12:47:27;;;;;;;14.50;4.20;;;19.50;99.90;;;;;;4997938;28;20066;-82
2023/07/04 12:49:54;;;;;;;14.35;3.53;;;19.20;99.90;;;;;;4998522;28;20073;-84
2023/07/04 12:52:21;;;;;;;15.30;3.55;;;19.10;99.90;;;;;;4998097;28;20046;-82
2023/07/04 12:57:35;;;;;;;11.55;3.60;;;18.50;99.90;;;;;;4997151;28;20050;-84
2023/07/04 13:00:02;;;;;;;15.35;3.42;;;18.60;99.90;;;;;;5013950;28;20093;-84
2023/07/04 13:02:29;;;;;;;10.73;3.45;;;18.70;99.90;;;;;;4997690;28;20042;-81
2023/07/04 13:07:26;;;;;;;11.60;3.55;;;18.50;99.90;;;;;;4998670;28;20074;-79
2023/07/04 13:09:52;;;;;;;14.45;4.05;;;18.40;99.90;;;;;;5013492;28;20046;-81
2023/07/04 13:12:19;;;;;;;16.40;4.55;;;18.20;99.90;;;;;;4993970;28;20097;-81
2023/07/04 13:14:46;;;;;;;11.27;4.00;;;17.70;99.90;;;;;;4993858;28;20074;-81
2023/07/04 13:17:13;;;;;;;14.70;4.30;;;17.50;99.90;;;;;;4978966;28;20061;-81